Time;durP1;ratioP1;P1;durP2;ratioP2;P2;SDS_P1;SDS_P2;PMS_P1;PMS_P2;Temp;Humidity;BMP_temperature;BMP_pressure;BME280_temperature;BME280_humidity;BME280_pressure;Samples;Min_cycle;Max_cycle;Signal;HPM_P1;HPM_P2
2023/08/22 00:01:27;;;;;;;5.22;1.90;;;;;;;23.43;52.13;101995.47;5043466;28;20053;-62
2023/08/22 00:03:57;;;;;;;4.47;1.90;;;;;;;23.43;52.40;102000.16;5024142;28;20049;-63
2023/08/22 00:06:25;;;;;;;4.15;1.70;;;;;;;23.40;52.14;101997.97;5046612;28;20060;-63
2023/08/22 00:08:53;;;;;;;4.80;2.00;;;;;;;23.37;52.63;101986.44;5063233;28;20045;-63
2023/08/22 00:11:21;;;;;;;3.47;1.73;;;;;;;23.36;52.72;101987.56;5024043;28;20107;-63
2023/08/22 00:13:49;;;;;;;4.72;2.20;;;;;;;23.35;52.93;101991.41;5028687;28;20045;-62
2023/08/22 00:16:18;;;;;;;6.13;1.90;;;;;;;23.32;52.89;102000.19;5043772;28;20071;-62
2023/08/22 00:18:46;;;;;;;5.18;2.03;;;;;;;23.31;52.48;101993.06;5043228;28;20053;-63
2023/08/22 00:21:15;;;;;;;5.63;1.90;;;;;;;23.30;52.89;101996.06;5055792;28;20525;-63
2023/08/22 00:23:43;;;;;;;3.22;1.83;;;;;;;23.28;52.95;101990.88;5055199;28;20061;-62
2023/08/22 00:26:11;;;;;;;3.13;1.67;;;;;;;23.27;52.57;101989.22;5043315;28;20041;-63
2023/08/22 00:28:39;;;;;;;4.40;1.85;;;;;;;23.26;52.57;101984.84;5069351;27;20049;-63
2023/08/22 00:31:07;;;;;;;2.65;1.25;;;;;;;23.26;52.56;101982.09;5059957;28;20102;-62
2023/08/22 00:33:34;;;;;;;2.85;1.60;;;;;;;23.25;53.08;101990.59;5050881;27;20084;-63
2023/08/22 00:36:03;;;;;;;2.65;1.77;;;;;;;23.23;53.00;101993.63;5062913;27;20049;-63
2023/08/22 00:38:32;;;;;;;4.13;1.98;;;;;;;23.24;52.80;101997.19;5142292;27;20042;-62
2023/08/22 00:41:00;;;;;;;5.22;1.77;;;;;;;23.23;52.74;101990.88;5042811;28;20049;-63
2023/08/22 00:43:28;;;;;;;3.95;2.03;;;;;;;23.22;53.21;101991.97;5043085;28;20053;-63
2023/08/22 00:45:56;;;;;;;7.35;1.75;;;;;;;23.20;53.35;101983.22;5043214;28;20045;-63
2023/08/22 00:48:24;;;;;;;5.70;2.08;;;;;;;23.21;53.47;101986.78;5055853;28;20053;-64
2023/08/22 00:50:52;;;;;;;3.33;1.52;;;;;;;23.20;53.17;101972.25;5046316;28;20053;-63
2023/08/22 00:53:20;;;;;;;2.75;1.70;;;;;;;23.19;53.12;101970.59;5044012;28;20045;-63
2023/08/22 00:55:50;;;;;;;3.25;1.90;;;;;;;23.18;53.28;101976.38;5043228;28;20049;-63
2023/08/22 00:58:18;;;;;;;5.55;1.98;;;;;;;23.17;53.61;101974.72;5043161;28;20050;-63
2023/08/22 01:00:46;;;;;;;5.30;1.73;;;;;;;23.16;53.36;101978.56;5042621;28;20049;-63
2023/08/22 01:03:14;;;;;;;5.78;2.08;;;;;;;23.15;53.39;101974.19;5049245;28;20144;-63
2023/08/22 01:05:53;;;;;;;4.82;2.00;;;;;;;23.13;53.74;101966.22;5062333;28;20049;-63
2023/08/22 01:08:30;;;;;;;5.88;1.80;;;;;;;23.13;53.51;101957.19;5061113;28;20078;-63
2023/08/22 01:11:03;;;;;;;;;;;;;;;23.12;53.28;101952.81;5042922;28;20057;-63
2023/08/22 01:13:34;;;;;;;6.68;2.33;;;;;;;23.11;53.68;101959.38;5049523;28;19967;-61
2023/08/22 01:16:02;;;;;;;3.28;1.90;;;;;;;23.09;53.43;101961.59;5062919;28;20045;-62
2023/08/22 01:18:32;;;;;;;5.05;1.90;;;;;;;23.07;53.78;101970.09;5059844;27;20072;-63
2023/08/22 01:21:05;;;;;;;5.05;2.00;;;;;;;23.05;54.00;101967.63;5042001;28;20087;-63
2023/08/22 01:23:34;;;;;;;6.57;2.20;;;;;;;23.04;54.17;101962.41;5043437;28;20057;-63
2023/08/22 01:26:02;;;;;;;5.03;2.35;;;;;;;23.03;54.08;101969.00;5042393;28;20049;-62
2023/08/22 01:28:37;;;;;;;5.15;2.13;;;;;;;23.02;54.31;101961.88;5065564;28;20073;-63
2023/08/22 01:31:11;;;;;;;3.67;1.90;;;;;;;22.99;54.47;101963.25;5062509;28;20049;-62
2023/08/22 01:33:46;;;;;;;2.10;1.60;;;;;;;22.97;54.39;101957.22;5057049;28;20045;-63
2023/08/22 01:36:17;;;;;;;5.38;2.13;;;;;;;22.95;54.70;101948.47;5042253;28;20098;-63
2023/08/22 01:38:50;;;;;;;3.25;1.80;;;;;;;22.93;54.77;101953.41;5031583;28;20499;-62
2023/08/22 01:41:18;;;;;;;6.72;2.33;;;;;;;22.92;54.62;101950.94;5042480;28;20075;-63
2023/08/22 01:43:46;;;;;;;3.47;2.00;;;;;;;22.92;54.62;101953.69;5054344;27;20060;-63
2023/08/22 01:46:14;;;;;;;7.72;2.47;;;;;;;22.89;54.64;101952.31;5062192;28;20067;-62
2023/08/22 01:48:42;;;;;;;2.88;1.80;;;;;;;22.88;54.57;101950.66;5060801;28;20380;-63
2023/08/22 01:51:10;;;;;;;7.03;2.10;;;;;;;22.87;54.69;101948.19;5042896;28;20521;-62
2023/08/22 01:53:38;;;;;;;5.00;2.03;;;;;;;22.86;54.99;101954.78;5047532;28;20110;-62
2023/08/22 01:56:07;;;;;;;5.28;1.77;;;;;;;22.85;54.65;101953.13;5061968;28;20061;-63
2023/08/22 01:58:35;;;;;;;3.78;1.80;;;;;;;22.83;55.14;101958.91;5062181;28;20078;-63
2023/08/22 02:01:09;;;;;;;7.28;2.17;;;;;;;22.82;55.18;101959.19;5055042;28;20060;-63
2023/08/22 02:03:37;;;;;;;6.88;2.13;;;;;;;22.80;54.95;101951.22;5042263;28;20059;-62
2023/08/22 02:06:05;;;;;;;3.28;1.83;;;;;;;22.79;55.20;101951.47;5041599;28;20052;-62
2023/08/22 02:08:33;;;;;;;3.13;1.83;;;;;;;22.78;55.39;101952.56;5043887;28;20110;-62
2023/08/22 02:11:01;;;;;;;3.95;2.47;;;;;;;22.77;55.07;101953.66;5043320;28;20075;-62
2023/08/22 02:13:31;;;;;;;3.00;1.80;;;;;;;22.76;55.30;101961.06;5042008;28;20054;-62
2023/08/22 02:15:59;;;;;;;2.85;1.80;;;;;;;22.72;55.43;101940.78;5042356;28;20109;-62
2023/08/22 02:18:27;;;;;;;5.13;2.08;;;;;;;22.72;55.37;101944.34;5044309;28;20050;-62
2023/08/22 02:20:56;;;;;;;4.60;1.80;;;;;;;22.72;55.36;101943.53;5046043;28;20075;-62
2023/08/22 02:23:26;;;;;;;4.82;2.60;;;;;;;22.70;55.25;101945.72;5042611;28;20057;-62
2023/08/22 02:25:54;;;;;;;5.13;1.95;;;;;;;22.69;55.40;101942.16;5041849;28;20052;-63
2023/08/22 02:28:22;;;;;;;6.07;1.75;;;;;;;22.68;55.39;101940.53;5116563;28;20047;-63
2023/08/22 02:30:56;;;;;;;8.68;2.60;;;;;;;22.68;55.64;101934.22;5131972;27;20050;-62
2023/08/22 02:33:24;;;;;;;4.85;2.42;;;;;;;22.66;55.40;101929.03;5065241;28;20049;-63
2023/08/22 02:35:53;;;;;;;3.10;2.05;;;;;;;22.65;55.79;101927.38;5048088;28;20072;-63
2023/08/22 02:38:20;;;;;;;4.10;2.28;;;;;;;22.65;55.55;101929.28;5136251;27;20047;-63
2023/08/22 02:40:48;;;;;;;4.85;1.98;;;;;;;22.64;55.34;101930.41;5149667;27;20517;-63
2023/08/22 02:43:17;;;;;;;3.28;1.70;;;;;;;22.63;55.69;101931.50;5071965;27;20057;-63
2023/08/22 02:45:45;;;;;;;4.85;2.00;;;;;;;22.61;55.53;101925.47;5044936;28;20049;-63
2023/08/22 02:48:14;;;;;;;5.53;1.80;;;;;;;22.60;55.71;101921.09;5050053;28;20077;-63
2023/08/22 02:50:44;;;;;;;5.80;2.22;;;;;;;22.60;55.62;101926.56;5049248;28;20057;-63
2023/08/22 02:53:14;;;;;;;4.63;2.10;;;;;;;22.59;55.49;101928.47;5046484;28;20045;-62
2023/08/22 02:55:43;;;;;;;3.90;1.90;;;;;;;22.56;56.04;101929.03;5064976;27;20074;-62
2023/08/22 02:58:10;;;;;;;4.95;1.90;;;;;;;22.56;55.75;101926.28;5065007;28;20049;-63
2023/08/22 03:00:39;;;;;;;4.50;1.95;;;;;;;22.55;55.70;101930.13;5064512;28;20049;-62
2023/08/22 03:03:07;;;;;;;4.38;1.95;;;;;;;22.55;56.12;101926.56;5063250;28;20061;-62
2023/08/22 03:05:37;;;;;;;4.90;2.47;;;;;;;22.53;55.87;101926.88;5064377;28;20045;-62
2023/08/22 03:08:05;;;;;;;5.18;2.05;;;;;;;22.52;56.02;101919.75;5064591;28;20384;-62
2023/08/22 03:10:33;;;;;;;4.10;1.88;;;;;;;22.51;56.21;101922.78;5048143;28;20045;-63
2023/08/22 03:13:01;;;;;;;4.85;2.00;;;;;;;22.42;56.03;101919.75;5049622;28;20048;-63
2023/08/22 03:15:29;;;;;;;5.80;2.05;;;;;;;22.49;56.29;101930.44;5064651;28;20049;-63
2023/08/22 03:17:57;;;;;;;6.40;2.08;;;;;;;22.48;56.00;101921.41;5063370;28;20041;-63
2023/08/22 03:20:24;;;;;;;3.35;1.85;;;;;;;22.47;55.98;101924.41;5055978;27;20079;-63
2023/08/22 03:22:54;;;;;;;3.60;1.90;;;;;;;22.45;56.10;101924.69;5044959;28;20049;-62
2023/08/22 03:25:22;;;;;;;3.70;1.80;;;;;;;22.44;56.19;101931.28;5044316;28;20094;-63
2023/08/22 03:27:49;;;;;;;4.80;1.90;;;;;;;22.43;56.46;101931.53;5057332;28;20060;-62
2023/08/22 03:30:17;;;;;;;4.25;1.98;;;;;;;22.41;56.59;101929.06;5062416;28;20060;-62
2023/08/22 03:32:45;;;;;;;5.47;2.10;;;;;;;22.39;56.14;101921.13;5046409;28;20117;-62
2023/08/22 03:35:13;;;;;;;6.35;2.13;;;;;;;22.38;56.42;101926.88;5061964;28;20041;-62
2023/08/22 03:37:41;;;;;;;3.83;2.13;;;;;;;22.37;56.25;101927.97;5114490;27;20064;-62
2023/08/22 03:40:12;;;;;;;3.75;1.90;;;;;;;22.35;56.64;101922.78;5148550;27;20075;-62
2023/08/22 03:42:40;;;;;;;2.90;1.60;;;;;;;22.33;56.41;101916.75;5108098;27;20054;-63
2023/08/22 03:45:09;;;;;;;4.38;2.00;;;;;;;22.32;56.65;101920.59;5043926;28;20057;-62
2023/08/22 03:47:37;;;;;;;4.95;2.08;;;;;;;22.31;56.27;101929.09;5044257;28;20049;-62
2023/08/22 03:50:06;;;;;;;4.78;2.33;;;;;;;22.28;56.40;101921.41;5044622;28;20505;-62
2023/08/22 03:52:34;;;;;;;4.07;2.40;;;;;;;22.27;56.45;101927.97;5064202;28;20386;-63
2023/08/22 03:55:02;;;;;;;5.57;2.08;;;;;;;22.25;56.66;101917.31;5058942;27;20180;-62
2023/08/22 03:57:31;;;;;;;7.90;2.40;;;;;;;22.23;56.71;101914.00;5057179;28;20065;-63
2023/08/22 03:59:59;;;;;;;5.97;2.10;;;;;;;22.23;56.79;101924.16;5043763;28;20559;-63
2023/08/22 04:02:26;;;;;;;4.05;2.10;;;;;;;22.21;56.67;101910.72;5043985;28;20050;-63
2023/08/22 04:04:56;;;;;;;2.58;2.10;;;;;;;22.21;56.92;101915.38;5043380;28;20325;-63
2023/08/22 04:07:25;;;;;;;7.03;2.10;;;;;;;22.19;56.93;101914.84;5043529;28;20154;-62
2023/08/22 04:09:53;;;;;;;4.97;2.60;;;;;;;22.18;56.69;101913.19;5043357;28;20046;-63
2023/08/22 04:12:21;;;;;;;4.18;2.20;;;;;;;22.17;56.94;101920.59;5043702;28;20065;-64
2023/08/22 04:14:51;;;;;;;7.03;2.15;;;;;;;22.16;56.59;101918.94;5043555;28;20049;-63
2023/08/22 04:17:19;;;;;;;4.55;2.00;;;;;;;22.13;56.79;101919.50;5043852;28;20052;-62
2023/08/22 04:19:47;;;;;;;4.07;2.58;;;;;;;22.13;57.03;101918.66;5043439;28;20054;-62
2023/08/22 04:22:15;;;;;;;4.72;2.10;;;;;;;22.11;56.63;101918.94;5043453;28;20547;-62
2023/08/22 04:24:43;;;;;;;4.97;2.53;;;;;;;22.09;57.10;101912.91;5056927;28;20041;-62
2023/08/22 04:27:11;;;;;;;4.40;2.53;;;;;;;22.08;56.80;101919.50;5051708;28;20045;-62
2023/08/22 04:29:39;;;;;;;4.97;2.13;;;;;;;22.07;57.04;101920.59;5063135;28;20478;-62
2023/08/22 04:32:08;;;;;;;3.72;2.20;;;;;;;22.07;56.85;101918.66;5062872;28;20053;-62
2023/08/22 04:34:36;;;;;;;4.53;2.38;;;;;;;22.05;57.12;101911.81;5062087;28;20097;-62
2023/08/22 04:37:04;;;;;;;6.38;2.42;;;;;;;22.03;56.90;101914.00;5077952;27;20047;-63
2023/08/22 04:39:32;;;;;;;5.53;2.80;;;;;;;22.03;56.76;101914.84;5147026;27;20068;-63
2023/08/22 04:42:00;;;;;;;6.13;2.88;;;;;;;22.01;56.86;101919.72;5086374;27;20152;-62
2023/08/22 04:44:28;;;;;;;6.65;2.45;;;;;;;22.02;56.80;101915.09;5042631;28;20130;-63
2023/08/22 04:46:56;;;;;;;4.93;2.35;;;;;;;22.00;56.72;101918.09;5043242;28;20121;-63
2023/08/22 04:49:25;;;;;;;4.70;2.42;;;;;;;21.99;56.96;101921.91;5042568;28;20048;-62
2023/08/22 04:51:53;;;;;;;3.60;2.15;;;;;;;21.97;56.83;101926.84;5042808;28;20049;-62
2023/08/22 04:54:21;;;;;;;5.50;2.25;;;;;;;21.96;56.83;101916.97;5042057;28;20049;-62
2023/08/22 04:56:49;;;;;;;5.15;2.40;;;;;;;21.95;56.79;101923.56;5043225;28;20049;-63
2023/08/22 04:59:17;;;;;;;6.57;2.63;;;;;;;21.94;57.12;101919.16;5042691;28;20049;-62
2023/08/22 05:01:45;;;;;;;4.65;2.70;;;;;;;21.92;56.93;101921.34;5063122;28;20070;-62
2023/08/22 05:04:13;;;;;;;3.97;2.40;;;;;;;21.91;56.90;101914.25;5062901;27;20112;-62
2023/08/22 05:06:42;;;;;;;12.07;2.90;;;;;;;21.90;57.02;101920.81;5053884;28;20071;-62
2023/08/22 05:09:10;;;;;;;5.63;2.22;;;;;;;21.90;57.34;101922.72;5042558;28;20045;-62
2023/08/22 05:11:39;;;;;;;4.03;2.00;;;;;;;21.88;57.17;101920.25;5042619;28;20125;-62
2023/08/22 05:14:07;;;;;;;7.97;2.83;;;;;;;21.88;57.22;101925.72;5057792;28;20053;-62
2023/08/22 05:16:35;;;;;;;9.30;2.30;;;;;;;21.87;57.11;101928.72;5062678;28;20049;-62
2023/08/22 05:19:04;;;;;;;4.85;2.58;;;;;;;21.86;57.13;101921.63;5062635;28;20045;-63
2023/08/22 05:21:31;;;;;;;4.28;2.40;;;;;;;21.85;57.21;101926.28;5054284;28;20050;-63
2023/08/22 05:24:01;;;;;;;5.38;2.33;;;;;;;21.84;57.46;101921.88;5042410;28;20072;-63
2023/08/22 05:26:29;;;;;;;4.95;2.40;;;;;;;21.82;57.21;101921.34;5042621;28;20050;-62
2023/08/22 05:28:56;;;;;;;6.38;2.55;;;;;;;21.81;57.46;101927.91;5059557;28;20045;-62
2023/08/22 05:31:26;;;;;;;6.78;3.17;;;;;;;21.80;57.50;101923.53;5042347;28;20098;-62
2023/08/22 05:33:54;;;;;;;4.60;2.33;;;;;;;21.79;57.42;101921.88;5053954;28;20049;-62
2023/08/22 05:36:22;;;;;;;5.95;2.65;;;;;;;21.77;57.41;101922.16;5061077;28;20049;-63
2023/08/22 05:38:50;;;;;;;5.38;2.58;;;;;;;21.76;57.21;101916.94;5046174;28;20041;-63
2023/08/22 05:41:19;;;;;;;7.65;2.38;;;;;;;21.75;57.33;101915.31;5062136;28;20052;-63
2023/08/22 05:43:47;;;;;;;5.55;2.63;;;;;;;21.74;57.36;101919.97;5046508;28;20058;-63
2023/08/22 05:46:15;;;;;;;7.53;3.00;;;;;;;21.74;57.67;101919.13;5042429;28;20045;-63
2023/08/22 05:48:43;;;;;;;8.27;2.92;;;;;;;21.73;57.55;101909.28;5042083;28;20109;-63
2023/08/22 05:51:11;;;;;;;8.55;3.15;;;;;;;21.72;57.42;101916.66;5041922;28;20053;-63
2023/08/22 05:53:38;;;;;;;4.28;2.83;;;;;;;21.73;57.54;101915.56;5055135;28;20109;-63
2023/08/22 05:56:06;;;;;;;9.30;2.78;;;;;;;21.72;57.64;101915.84;5062343;27;20049;-63
2023/08/22 05:58:36;;;;;;;6.22;2.80;;;;;;;21.72;57.50;101921.31;5043425;28;20050;-63
2023/08/22 06:01:09;;;;;;;5.07;2.90;;;;;;;21.72;57.70;101924.88;5041957;28;20345;-63
2023/08/22 06:03:37;;;;;;;5.40;2.97;;;;;;;21.73;57.80;101929.25;5042334;28;20098;-62
2023/08/22 06:06:06;;;;;;;7.20;2.85;;;;;;;21.73;57.61;101933.91;5043441;28;20045;-63
2023/08/22 06:08:34;;;;;;;7.93;3.38;;;;;;;21.75;57.56;101938.00;5056075;28;20109;-62
2023/08/22 06:11:02;;;;;;;5.47;2.97;;;;;;;21.77;57.59;101935.84;5025606;28;20054;-62
2023/08/22 06:13:30;;;;;;;7.22;3.05;;;;;;;21.77;57.60;101935.84;5025983;28;20065;-62
2023/08/22 06:15:59;;;;;;;10.50;3.45;;;;;;;21.78;57.22;101939.38;5025620;28;20123;-63
2023/08/22 06:18:27;;;;;;;8.52;3.63;;;;;;;21.77;57.48;101938.56;5025968;28;20058;-63
2023/08/22 06:20:59;;;;;;;8.45;2.88;;;;;;;21.78;57.34;101947.59;5041936;28;20064;-63
2023/08/22 06:23:27;;;;;;;8.40;3.20;;;;;;;21.76;57.59;101942.41;5045572;28;20049;-63
2023/08/22 06:25:55;;;;;;;6.10;2.63;;;;;;;21.76;57.40;101941.56;5049480;28;20046;-63
2023/08/22 06:28:23;;;;;;;5.57;2.67;;;;;;;21.76;57.32;101944.31;5120395;27;20082;-62
2023/08/22 06:30:50;;;;;;;7.45;3.47;;;;;;;21.75;57.37;101940.75;5065824;27;20168;-62
2023/08/22 06:33:20;;;;;;;7.00;2.75;;;;;;;21.74;57.27;101941.03;5065359;28;20049;-62
2023/08/22 06:35:48;;;;;;;5.50;2.63;;;;;;;21.65;57.27;101927.03;5064720;28;20120;-63
2023/08/22 06:38:16;;;;;;;5.30;2.65;;;;;;;21.72;57.13;101941.28;5134584;27;20039;-62
2023/08/22 06:40:44;;;;;;;4.55;2.83;;;;;;;21.71;57.19;101928.69;5149679;27;20055;-63
2023/08/22 06:43:12;;;;;;;4.68;2.60;;;;;;;21.71;57.56;101934.19;5073172;27;20087;-62
2023/08/22 06:45:40;;;;;;;7.35;2.60;;;;;;;21.70;57.21;101939.91;5045273;28;20045;-63
2023/08/22 06:48:08;;;;;;;4.75;2.38;;;;;;;21.71;57.20;101944.31;5045131;28;20046;-62
2023/08/22 06:50:38;;;;;;;5.82;2.42;;;;;;;21.71;57.49;101952.50;5043713;28;20045;-63
2023/08/22 06:53:06;;;;;;;4.68;2.38;;;;;;;21.71;57.41;101947.03;5045860;28;20058;-63
2023/08/22 06:55:34;;;;;;;9.15;2.65;;;;;;;21.71;57.34;101956.06;5064815;28;20045;-63
2023/08/22 06:58:02;;;;;;;4.28;2.40;;;;;;;21.72;57.55;101959.63;5064915;28;20045;-63
2023/08/22 07:00:30;;;;;;;4.45;2.40;;;;;;;21.73;57.52;101966.75;5050903;28;20053;-63
2023/08/22 07:02:58;;;;;;;4.38;2.72;;;;;;;21.73;57.55;101969.47;5044938;28;20071;-63
2023/08/22 07:05:26;;;;;;;6.68;2.53;;;;;;;21.73;57.50;101970.31;5044378;28;20056;-62
2023/08/22 07:07:55;;;;;;;8.38;2.78;;;;;;;21.74;57.51;101976.59;5044007;28;20049;-62
2023/08/22 07:10:23;;;;;;;7.05;2.67;;;;;;;21.73;57.71;101973.03;5046445;28;20094;-62
2023/08/22 07:12:51;;;;;;;5.93;2.83;;;;;;;21.74;57.42;101979.34;5064585;28;20109;-63
2023/08/22 07:15:19;;;;;;;4.32;2.28;;;;;;;21.69;57.39;101971.09;5053664;28;20058;-63
2023/08/22 07:17:47;;;;;;;3.72;2.30;;;;;;;21.75;57.48;101970.84;5043492;28;20045;-63
2023/08/22 07:20:15;;;;;;;7.20;2.17;;;;;;;21.76;57.36;101988.91;5044060;28;20056;-63
2023/08/22 07:22:43;;;;;;;10.38;2.45;;;;;;;21.76;57.31;101988.09;5044404;28;20054;-63
2023/08/22 07:25:13;;;;;;;8.10;3.20;;;;;;;21.76;57.24;101985.38;5052788;28;20070;-63
2023/08/22 07:27:41;;;;;;;4.80;2.10;;;;;;;21.73;57.37;101981.25;5089885;27;20500;-63
2023/08/22 07:30:10;;;;;;;7.85;2.63;;;;;;;21.74;57.49;101988.38;5148735;27;20039;-62
2023/08/22 07:32:38;;;;;;;5.18;2.30;;;;;;;21.74;57.22;101980.16;5143415;27;20051;-62
2023/08/22 07:35:08;;;;;;;3.78;2.05;;;;;;;21.75;57.20;101989.19;5044087;28;20068;-62
2023/08/22 07:37:36;;;;;;;6.93;2.00;;;;;;;21.76;57.49;101988.09;5102420;27;20043;-63
2023/08/22 07:40:06;;;;;;;3.90;2.10;;;;;;;21.77;57.23;101984.28;5148421;27;20518;-63
2023/08/22 07:42:35;;;;;;;5.65;2.00;;;;;;;21.79;57.18;101978.53;5064024;27;20049;-63
2023/08/22 07:45:04;;;;;;;6.20;1.42;;;;;;;21.79;57.43;101981.25;5043592;28;20116;-63
2023/08/22 07:47:32;;;;;;;4.35;2.10;;;;;;;21.79;57.17;101984.81;5044165;28;20053;-63
2023/08/22 07:50:00;;;;;;;8.07;2.67;;;;;;;21.80;57.22;101991.94;5043623;28;20052;-62
2023/08/22 07:52:28;;;;;;;5.20;1.85;;;;;;;21.81;56.88;101981.81;5043793;28;20050;-62
2023/08/22 07:54:56;;;;;;;5.07;2.08;;;;;;;21.81;56.88;101990.84;5041494;28;20050;-62
2023/08/22 07:57:24;;;;;;;3.70;1.63;;;;;;;21.82;56.97;101987.03;5044064;28;20053;-62
2023/08/22 07:59:53;;;;;;;6.90;2.80;;;;;;;21.83;57.03;101993.31;5049573;28;20109;-62
2023/08/22 08:02:21;;;;;;;4.88;2.28;;;;;;;21.84;56.82;101989.50;5050078;28;20053;-63
2023/08/22 08:04:49;;;;;;;4.57;2.35;;;;;;;21.85;57.13;101982.91;5043190;28;20052;-63
2023/08/22 08:07:17;;;;;;;5.38;2.60;;;;;;;21.85;57.13;101982.91;5043330;28;20106;-63
2023/08/22 08:09:45;;;;;;;5.90;2.55;;;;;;;21.85;57.12;101988.41;5043373;28;20067;-63
2023/08/22 08:12:13;;;;;;;5.68;2.40;;;;;;;21.86;57.18;101984.56;5047359;28;20153;-63
2023/08/22 08:14:41;;;;;;;6.78;2.30;;;;;;;21.86;57.24;101999.06;5043824;28;20053;-63
2023/08/22 08:17:10;;;;;;;5.93;2.45;;;;;;;21.88;57.07;101998.81;5043540;28;20506;-63
2023/08/22 08:19:39;;;;;;;8.10;2.75;;;;;;;21.89;57.21;101994.97;5060939;28;20049;-63
2023/08/22 08:22:06;;;;;;;7.35;2.50;;;;;;;21.89;57.10;101995.81;5059403;28;20079;-63
2023/08/22 08:24:35;;;;;;;6.85;3.13;;;;;;;21.89;57.29;101995.81;5044073;28;20100;-63
2023/08/22 08:27:03;;;;;;;6.10;2.47;;;;;;;21.90;57.26;101988.41;5060502;27;20047;-63
2023/08/22 08:29:30;;;;;;;7.35;2.92;;;;;;;21.91;57.21;101998.25;5136936;27;20128;-63
2023/08/22 08:31:58;;;;;;;6.55;3.05;;;;;;;21.92;57.37;101999.91;5063456;28;20056;-63
2023/08/22 08:34:28;;;;;;;5.95;2.33;;;;;;;21.92;56.93;102003.47;5063207;28;20045;-63
2023/08/22 08:36:57;;;;;;;5.75;2.42;;;;;;;21.93;57.25;101996.91;5056992;28;20071;-63
2023/08/22 08:39:25;;;;;;;5.95;2.33;;;;;;;21.94;56.85;102004.03;5044886;28;20049;-63
2023/08/22 08:41:59;;;;;;;8.88;3.20;;;;;;;21.94;56.90;102009.50;5062908;28;20049;-63
2023/08/22 08:44:28;;;;;;;5.10;2.40;;;;;;;21.96;57.11;102001.84;5023294;28;20111;-63
2023/08/22 08:46:57;;;;;;;7.20;3.22;;;;;;;21.97;57.06;102003.50;5023258;28;20054;-63
2023/08/22 08:49:25;;;;;;;7.25;2.60;;;;;;;21.97;57.13;102003.50;5057777;28;20049;-62
2023/08/22 08:51:55;;;;;;;6.40;3.10;;;;;;;21.99;57.12;102006.78;5042776;28;20045;-62
2023/08/22 08:54:25;;;;;;;6.15;2.50;;;;;;;22.00;56.81;101999.38;5042789;28;20137;-63
2023/08/22 08:56:53;;;;;;;8.07;2.50;;;;;;;22.01;57.14;102001.84;5042876;28;20053;-63
2023/08/22 08:59:21;;;;;;;8.85;2.75;;;;;;;22.02;56.92;101989.84;5042957;28;20049;-63
2023/08/22 09:01:51;;;;;;;10.07;2.45;;;;;;;22.03;57.09;101988.75;5042267;28;20042;-63
2023/08/22 09:04:19;;;;;;;7.45;2.17;;;;;;;22.05;57.00;101993.94;5042966;28;20084;-63
2023/08/22 09:06:47;;;;;;;6.40;2.25;;;;;;;21.99;56.87;101978.56;5042275;28;20041;-63
2023/08/22 09:09:17;;;;;;;6.18;2.28;;;;;;;22.09;56.93;101995.06;5042697;28;20067;-62
2023/08/22 09:11:46;;;;;;;6.32;2.42;;;;;;;22.09;57.02;102003.28;5042574;28;20170;-63
2023/08/22 09:14:19;;;;;;;5.18;3.00;;;;;;;22.12;57.08;101996.44;5042576;28;20049;-63
2023/08/22 09:16:47;;;;;;;6.40;2.72;;;;;;;22.13;57.08;101998.06;5042684;28;20082;-63
2023/08/22 09:19:15;;;;;;;7.03;2.55;;;;;;;22.13;57.37;101993.41;5060738;27;20112;-62
2023/08/22 09:21:57;;;;;;;6.60;2.50;;;;;;;22.15;57.48;101999.44;5061852;28;20041;-62
2023/08/22 09:24:27;;;;;;;6.93;2.67;;;;;;;22.18;57.38;102006.31;5048520;28;20049;-62
2023/08/22 09:26:55;;;;;;;8.00;2.65;;;;;;;22.19;57.16;102007.94;5060010;27;20045;-62
2023/08/22 09:29:27;;;;;;;4.25;2.42;;;;;;;22.20;57.29;102006.84;5146725;27;20047;-62
2023/08/22 09:31:58;;;;;;;9.07;2.50;;;;;;;22.20;57.44;101995.91;5090632;27;20090;-62
2023/08/22 09:34:26;;;;;;;8.55;2.60;;;;;;;22.21;57.39;102001.09;5060542;27;20045;-62
2023/08/22 09:36:55;;;;;;;7.20;2.63;;;;;;;22.23;57.44;102000.84;5084631;27;20103;-62
2023/08/22 09:39:24;;;;;;;7.65;2.50;;;;;;;22.23;57.47;102006.31;5146608;27;20095;-63
2023/08/22 09:41:56;;;;;;;5.35;2.53;;;;;;;22.24;57.28;101995.09;5102902;28;20041;-62
2023/08/22 09:44:25;;;;;;;12.70;3.30;;;;;;;22.24;57.19;101991.53;5022496;28;20115;-63
2023/08/22 09:46:55;;;;;;;7.68;2.85;;;;;;;22.25;57.18;101999.47;5022579;28;20056;-63
2023/08/22 09:49:23;;;;;;;7.32;2.50;;;;;;;22.26;57.60;102008.50;5056018;27;20052;-63
2023/08/22 09:51:53;;;;;;;7.60;2.70;;;;;;;22.27;57.32;102010.16;5041771;28;20130;-62
2023/08/22 09:54:23;;;;;;;9.20;3.33;;;;;;;22.28;57.58;102011.78;5041947;28;20064;-63
2023/08/22 09:56:53;;;;;;;8.55;3.00;;;;;;;22.28;57.64;102020.84;5042163;28;20117;-63
2023/08/22 09:59:21;;;;;;;11.48;2.85;;;;;;;22.28;57.53;102015.34;5042124;28;20054;-63
2023/08/22 10:01:49;;;;;;;5.30;2.92;;;;;;;22.30;57.62;102020.56;5042090;28;20056;-62
2023/08/22 10:04:18;;;;;;;8.65;3.10;;;;;;;22.32;57.51;102021.09;5041615;28;20085;-62
2023/08/22 10:06:48;;;;;;;7.05;3.25;;;;;;;22.33;57.48;102014.53;5041510;28;20054;-62
2023/08/22 10:09:21;;;;;;;7.10;2.80;;;;;;;22.35;57.44;102021.38;5042517;28;20064;-63
2023/08/22 10:11:51;;;;;;;5.72;2.00;;;;;;;22.37;57.27;102010.16;5061758;28;20045;-63
2023/08/22 10:14:27;;;;;;;9.02;3.20;;;;;;;22.40;57.66;102012.34;5061888;28;20070;-62
2023/08/22 10:16:55;;;;;;;7.25;2.50;;;;;;;22.41;57.35;102011.25;5062037;28;20125;-63
2023/08/22 10:19:25;;;;;;;7.60;2.58;;;;;;;22.42;57.07;102012.91;5059923;28;20071;-62
2023/08/22 10:21:54;;;;;;;8.45;2.67;;;;;;;22.42;57.03;102004.69;5061473;28;20049;-62
2023/08/22 10:24:33;;;;;;;8.93;2.75;;;;;;;22.43;57.53;101992.63;5048424;28;20053;-62
2023/08/22 10:27:03;;;;;;;7.50;2.40;;;;;;;22.44;57.33;101993.44;5057894;28;20095;-62
2023/08/22 10:29:36;;;;;;;9.48;2.70;;;;;;;22.45;57.19;101995.91;5051534;28;20053;-62
2023/08/22 10:32:19;;;;;;;8.07;2.97;;;;;;;22.46;56.97;102008.53;5041494;28;20045;-63
2023/08/22 10:35:26;;;;;;;6.25;2.60;;;;;;;22.47;57.38;102018.38;5059258;28;20053;-63
2023/08/22 10:37:55;;;;;;;5.68;2.03;;;;;;;22.49;56.80;102010.72;5068857;28;20083;-63
2023/08/22 10:40:29;;;;;;;8.65;2.80;;;;;;;22.51;57.12;102011.25;5062221;28;20437;-62
2023/08/22 10:43:12;;;;;;;9.07;3.03;;;;;;;22.52;57.15;102001.13;5065474;28;20049;-63
2023/08/22 10:45:43;;;;;;;9.70;2.22;;;;;;;22.52;57.00;101996.47;5062258;28;20049;-62
2023/08/22 10:48:13;;;;;;;7.70;2.20;;;;;;;22.54;56.78;101997.00;5062467;28;20057;-62
2023/08/22 10:50:42;;;;;;;5.80;1.95;;;;;;;22.55;56.84;101998.63;5063484;28;20116;-62
2023/08/22 10:53:23;;;;;;;4.95;2.05;;;;;;;22.57;56.75;101990.97;5064022;28;20053;-62
2023/08/22 10:55:51;;;;;;;6.10;2.05;;;;;;;22.60;56.63;101993.16;5065801;28;20049;-62
2023/08/22 10:58:58;;;;;;;4.85;2.50;;;;;;;22.64;56.64;101994.25;5065870;28;20053;-62
2023/08/22 11:01:27;;;;;;;7.05;2.05;;;;;;;22.66;56.76;101992.06;5065404;28;20102;-62
2023/08/22 11:03:56;;;;;;;9.27;2.35;;;;;;;22.69;56.26;101987.94;5083355;28;20112;-62
2023/08/22 11:06:25;;;;;;;3.10;1.73;;;;;;;22.72;56.25;102003.84;5068861;28;20060;-62
2023/08/22 11:08:52;;;;;;;3.45;1.63;;;;;;;22.73;56.33;102000.00;5065541;28;20057;-62
2023/08/22 11:11:21;;;;;;;4.00;1.77;;;;;;;22.76;56.56;101990.41;5060513;28;20046;-62
2023/08/22 11:13:49;;;;;;;4.38;1.90;;;;;;;22.79;56.17;101989.84;5044533;28;20510;-62
2023/08/22 11:16:18;;;;;;;3.65;1.63;;;;;;;22.82;56.17;101986.59;5044307;28;20049;-62
2023/08/22 11:18:49;;;;;;;3.20;1.58;;;;;;;22.84;56.05;101987.94;5044179;28;20052;-62
2023/08/22 11:21:17;;;;;;;4.82;1.50;;;;;;;22.87;55.51;101992.88;5053179;28;20109;-63
2023/08/22 11:23:45;;;;;;;7.20;2.55;;;;;;;22.88;55.17;101990.97;5055914;27;20053;-63
2023/08/22 11:26:13;;;;;;;4.63;1.77;;;;;;;22.90;55.48;101991.50;5044264;28;20053;-63
2023/08/22 11:28:42;;;;;;;5.38;1.75;;;;;;;22.92;55.32;101994.78;5075838;27;20107;-63
2023/08/22 11:31:15;;;;;;;5.60;1.70;;;;;;;22.94;55.14;101992.59;5064207;27;20084;-63
2023/08/22 11:33:50;;;;;;;8.10;1.65;;;;;;;22.96;54.72;101990.41;5063019;28;20074;-63